Time;durP1;ratioP1;P1;durP2;ratioP2;P2;SDS_P1;SDS_P2;PMS_P1;PMS_P2;Temp;Humidity;BMP_temperature;BMP_pressure;BME280_temperature;BME280_humidity;BME280_pressure;Samples;Min_cycle;Max_cycle;Signal;HPM_P1;HPM_P2
2022/06/06 00:00:55;;;;;;;4.23;3.80;;;17.70;92.70;;;;;;5073447;28;20860;-73
2022/06/06 00:03:23;;;;;;;5.57;4.30;;;17.70;93.00;;;;;;5073797;28;20457;-75
2022/06/06 00:05:50;;;;;;;5.00;4.20;;;17.70;93.20;;;;;;5074703;28;20562;-75
2022/06/06 00:08:17;;;;;;;4.23;3.93;;;17.70;93.10;;;;;;5078281;28;20459;-75
2022/06/06 00:10:46;;;;;;;4.20;3.80;;;17.80;93.20;;;;;;5096486;28;20516;-74
2022/06/06 00:13:16;;;;;;;4.30;3.90;;;17.80;93.00;;;;;;5098058;28;20463;-74
2022/06/06 00:15:43;;;;;;;4.03;3.63;;;17.90;92.70;;;;;;5097470;28;20486;-74
2022/06/06 00:18:09;;;;;;;6.50;4.20;;;17.90;92.30;;;;;;5097499;28;20434;-74
2022/06/06 00:20:36;;;;;;;3.83;3.53;;;17.90;92.00;;;;;;5093073;28;21003;-74
2022/06/06 00:23:03;;;;;;;3.83;3.53;;;18.00;91.80;;;;;;5078398;28;20939;-74
2022/06/06 00:25:31;;;;;;;5.10;4.30;;;18.10;90.90;;;;;;5076503;28;20454;-74
2022/06/06 00:27:57;;;;;;;5.60;4.47;;;18.10;90.50;;;;;;5075966;28;20484;-75
2022/06/06 00:30:25;;;;;;;4.40;4.00;;;18.20;89.80;;;;;;5075797;28;20456;-75
2022/06/06 00:35:37;;;;;;;4.40;4.10;;;18.20;89.80;;;;;;5075113;28;20447;-75
2022/06/06 00:38:04;;;;;;;5.00;4.60;;;18.20;90.40;;;;;;5075083;28;20482;-75
2022/06/06 00:40:31;;;;;;;5.07;4.70;;;18.20;91.60;;;;;;5075145;28;20448;-75
2022/06/06 00:42:58;;;;;;;4.93;4.53;;;18.20;92.60;;;;;;5075204;28;20478;-74
2022/06/06 00:45:35;;;;;;;6.13;5.53;;;18.10;92.80;;;;;;5074196;28;20470;-75
2022/06/06 00:48:20;;;;;;;6.10;5.07;;;18.10;93.50;;;;;;5077666;28;21029;-75
2022/06/06 00:50:53;;;;;;;5.83;4.83;;;18.10;94.60;;;;;;5082818;28;20449;-74
2022/06/06 00:53:23;;;;;;;6.47;5.10;;;18.00;94.70;;;;;;5101246;28;20432;-75
2022/06/06 00:55:55;;;;;;;6.00;5.50;;;18.10;95.00;;;;;;5101220;28;20523;-73
2022/06/06 00:58:24;;;;;;;5.43;4.93;;;18.00;95.10;;;;;;5100327;28;20472;-75
2022/06/06 01:00:53;;;;;;;4.30;4.00;;;17.90;95.70;;;;;;5079106;28;20435;-74
2022/06/06 01:03:23;;;;;;;5.20;4.70;;;17.90;96.20;;;;;;5078353;28;20525;-75
2022/06/06 01:05:52;;;;;;;5.23;4.73;;;17.90;96.40;;;;;;5076674;28;20993;-75
2022/06/06 01:08:22;;;;;;;4.80;4.50;;;17.80;96.90;;;;;;5076261;28;20480;-73
2022/06/06 01:10:49;;;;;;;5.43;4.93;;;17.80;97.10;;;;;;5075829;28;20997;-74
2022/06/06 01:13:18;;;;;;;5.57;5.10;;;17.70;98.00;;;;;;5075799;28;20423;-73
2022/06/06 01:16:15;;;;;;;5.60;5.13;;;17.60;98.10;;;;;;5077012;28;20460;-73
2022/06/06 01:18:57;;;;;;;5.10;4.70;;;17.60;99.10;;;;;;5079367;28;20431;-73
2022/06/06 01:21:53;;;;;;;5.33;4.83;;;17.50;99.80;;;;;;5076734;28;20422;-73
2022/06/06 01:25:11;;;;;;;5.70;5.20;;;17.50;99.90;;;;;;5082049;28;20442;-73
2022/06/06 01:27:48;;;;;;;6.30;5.70;;;17.50;99.90;;;;;;4998269;28;20462;-73
2022/06/06 01:30:19;;;;;;;6.80;6.10;;;17.40;99.90;;;;;;4994218;28;20446;-73
2022/06/06 01:32:50;;;;;;;7.80;6.13;;;17.40;99.90;;;;;;4993732;28;20897;-75
2022/06/06 01:35:27;;;;;;;7.27;5.90;;;17.40;99.90;;;;;;4993436;28;20483;-74
2022/06/06 01:37:54;;;;;;;5.90;5.40;;;17.30;99.90;;;;;;4993516;28;20963;-73
2022/06/06 01:40:22;;;;;;;6.50;5.67;;;17.30;99.90;;;;;;4993358;28;20850;-72
2022/06/06 01:42:56;;;;;;;6.60;6.10;;;17.20;99.90;;;;;;4994084;28;20460;-73
2022/06/06 01:45:30;;;;;;;6.13;5.70;;;17.20;99.90;;;;;;4994518;28;20539;-74
2022/06/06 01:48:04;;;;;;;6.33;5.60;;;17.20;99.90;;;;;;4995487;28;20859;-73
2022/06/06 01:50:34;;;;;;;6.40;5.80;;;17.20;99.90;;;;;;4995964;28;20443;-73
2022/06/06 01:53:05;;;;;;;5.90;5.40;;;17.10;99.90;;;;;;4995851;28;20491;-74
2022/06/06 01:55:35;;;;;;;6.87;6.27;;;17.10;99.90;;;;;;4995639;28;20523;-74
2022/06/06 01:58:05;;;;;;;6.93;6.23;;;17.10;99.90;;;;;;5029145;28;20427;-75
2022/06/06 02:00:36;;;;;;;6.60;6.03;;;17.10;99.90;;;;;;5077846;28;20457;-75
2022/06/06 02:03:03;;;;;;;7.23;6.23;;;17.10;99.90;;;;;;5076951;28;20455;-75
2022/06/06 02:05:30;;;;;;;8.17;6.27;;;17.10;99.90;;;;;;5077190;28;20487;-77
2022/06/06 02:07:58;;;;;;;6.43;5.83;;;17.10;99.90;;;;;;5077311;28;20557;-75
2022/06/06 02:10:25;;;;;;;6.90;6.07;;;17.00;99.90;;;;;;5077381;28;20452;-75
2022/06/06 02:12:53;;;;;;;6.87;6.37;;;16.90;99.90;;;;;;5077043;28;20434;-75
2022/06/06 02:15:22;;;;;;;7.40;6.70;;;16.90;99.90;;;;;;5076138;28;20449;-75
2022/06/06 02:17:51;;;;;;;6.43;5.83;;;16.90;99.90;;;;;;5075615;28;20486;-74
2022/06/06 02:20:20;;;;;;;7.50;6.80;;;16.90;99.90;;;;;;5075419;28;20458;-75
2022/06/06 02:22:47;;;;;;;6.90;6.20;;;16.80;99.90;;;;;;5075027;28;20427;-73
2022/06/06 02:25:14;;;;;;;7.23;6.50;;;16.80;99.90;;;;;;5074279;28;20472;-74
2022/06/06 02:27:42;;;;;;;7.30;6.20;;;16.80;99.90;;;;;;5074525;28;20483;-75
2022/06/06 02:30:13;;;;;;;7.00;6.03;;;16.70;99.90;;;;;;5075733;28;20430;-74
2022/06/06 02:32:40;;;;;;;7.13;6.43;;;16.70;99.90;;;;;;5075738;28;20526;-76
2022/06/06 02:35:10;;;;;;;10.53;6.00;;;16.70;99.90;;;;;;5076010;28;20505;-74
2022/06/06 02:37:37;;;;;;;6.67;6.07;;;16.60;99.90;;;;;;5075853;28;20447;-72
2022/06/06 02:40:06;;;;;;;7.40;6.77;;;16.60;99.90;;;;;;5075418;28;20452;-74
2022/06/06 02:42:32;;;;;;;6.63;5.93;;;16.50;99.90;;;;;;5075622;28;20444;-75
2022/06/06 02:44:59;;;;;;;6.03;5.53;;;16.50;99.90;;;;;;5074766;28;20439;-73
2022/06/06 02:47:26;;;;;;;6.20;5.60;;;16.50;99.90;;;;;;5074757;28;20421;-73
2022/06/06 02:49:53;;;;;;;7.00;6.40;;;16.50;99.90;;;;;;5074438;28;20535;-74
2022/06/06 02:52:22;;;;;;;6.60;6.10;;;16.50;99.90;;;;;;5074327;28;20794;-73
2022/06/06 02:54:48;;;;;;;6.40;5.80;;;16.50;99.90;;;;;;5073289;28;20427;-73
2022/06/06 02:57:16;;;;;;;6.30;5.70;;;16.50;99.90;;;;;;5073614;28;20551;-73
2022/06/06 02:59:44;;;;;;;6.40;5.00;;;16.40;99.90;;;;;;5074254;28;20464;-73
2022/06/06 03:02:11;;;;;;;10.70;5.80;;;16.40;99.90;;;;;;5079124;28;20452;-74
2022/06/06 03:04:39;;;;;;;6.50;5.93;;;16.30;99.90;;;;;;5095936;28;20456;-76
2022/06/06 03:07:19;;;;;;;5.90;5.40;;;16.30;99.90;;;;;;5098775;28;20471;-73
2022/06/06 03:09:59;;;;;;;8.40;6.50;;;16.30;99.90;;;;;;5096723;28;20480;-73
2022/06/06 03:12:40;;;;;;;9.53;6.33;;;16.20;99.90;;;;;;5080603;28;20444;-73
2022/06/06 03:15:27;;;;;;;6.70;6.10;;;16.20;99.90;;;;;;5075137;28;20869;-74
2022/06/06 03:21:31;;;;;;;7.50;6.80;;;16.20;99.90;;;;;;4993575;28;20436;-73
2022/06/06 03:24:13;;;;;;;7.73;5.73;;;16.20;99.90;;;;;;5062037;28;20451;-74
2022/06/06 03:26:51;;;;;;;7.53;6.00;;;16.30;99.90;;;;;;5075023;28;20480;-74
2022/06/06 03:29:31;;;;;;;6.10;5.50;;;16.30;99.90;;;;;;5075552;28;20490;-74
2022/06/06 03:32:08;;;;;;;6.53;5.70;;;16.30;99.90;;;;;;5075010;28;20440;-74
2022/06/06 03:34:42;;;;;;;5.90;5.40;;;16.30;99.90;;;;;;5080169;28;20484;-73
2022/06/06 03:37:17;;;;;;;7.57;6.33;;;16.30;99.90;;;;;;5091736;28;20439;-74
2022/06/06 03:39:53;;;;;;;6.30;5.70;;;16.40;99.90;;;;;;5092593;28;20436;-73
2022/06/06 03:42:27;;;;;;;5.73;5.27;;;16.40;99.90;;;;;;5074448;28;20411;-74
2022/06/06 03:45:07;;;;;;;5.83;5.33;;;16.50;99.90;;;;;;5074268;28;20505;-74
2022/06/06 03:47:46;;;;;;;6.93;5.43;;;16.60;99.90;;;;;;5075729;28;20422;-74
2022/06/06 03:50:24;;;;;;;5.77;5.17;;;16.70;99.90;;;;;;5074986;28;20471;-73
2022/06/06 03:52:57;;;;;;;5.20;4.70;;;16.70;99.90;;;;;;5074725;28;20891;-73
2022/06/06 03:55:33;;;;;;;4.90;4.47;;;16.80;99.90;;;;;;5075723;28;20447;-72
2022/06/06 03:58:04;;;;;;;7.30;5.83;;;16.80;99.90;;;;;;5075648;28;20536;-73
2022/06/06 04:00:32;;;;;;;6.70;5.17;;;16.80;99.90;;;;;;5075464;28;20486;-74
2022/06/06 04:03:01;;;;;;;5.30;4.90;;;16.80;99.90;;;;;;5075655;28;20434;-74
2022/06/06 04:05:30;;;;;;;6.30;5.70;;;16.90;99.90;;;;;;5092157;28;20430;-75
2022/06/06 04:07:57;;;;;;;7.00;5.50;;;16.90;99.90;;;;;;5095512;28;20448;-74
2022/06/06 04:10:30;;;;;;;7.57;5.20;;;17.00;99.90;;;;;;5088497;28;20417;-74
2022/06/06 04:13:12;;;;;;;5.40;4.97;;;17.10;99.90;;;;;;5075988;28;20922;-73
2022/06/06 04:15:48;;;;;;;5.07;4.67;;;17.30;99.90;;;;;;5074258;28;20826;-74
2022/06/06 04:18:27;;;;;;;5.60;5.10;;;17.40;99.90;;;;;;5073505;28;21037;-73
2022/06/06 04:21:02;;;;;;;5.00;4.50;;;17.60;99.20;;;;;;5073925;28;20447;-73
2022/06/06 04:23:54;;;;;;;5.00;4.60;;;17.80;97.10;;;;;;5077223;28;20436;-73
2022/06/06 04:26:32;;;;;;;5.17;4.70;;;18.00;95.50;;;;;;5077700;28;20479;-74
2022/06/06 04:29:06;;;;;;;7.77;4.47;;;18.20;93.60;;;;;;5077377;28;20473;-73
2022/06/06 04:31:44;;;;;;;5.03;4.30;;;18.30;92.30;;;;;;5077610;28;20430;-73
2022/06/06 04:34:17;;;;;;;5.93;4.97;;;18.50;91.00;;;;;;5077762;28;20440;-74
2022/06/06 04:36:50;;;;;;;9.90;5.30;;;18.60;90.00;;;;;;5077542;28;20454;-73
2022/06/06 04:39:24;;;;;;;5.20;4.70;;;18.70;88.40;;;;;;5078029;28;20415;-73
2022/06/06 04:41:57;;;;;;;6.40;4.80;;;18.90;87.20;;;;;;5077718;28;20410;-73
2022/06/06 04:44:35;;;;;;;5.00;4.60;;;18.90;85.60;;;;;;5077744;28;20464;-72
2022/06/06 04:47:09;;;;;;;5.00;4.50;;;18.90;84.70;;;;;;5077750;28;20483;-74
2022/06/06 04:49:37;;;;;;;4.80;4.40;;;19.00;84.50;;;;;;5078270;28;20480;-75
2022/06/06 04:52:05;;;;;;;4.23;3.93;;;19.00;84.10;;;;;;5077458;28;20427;-74
2022/06/06 04:54:33;;;;;;;5.90;4.80;;;19.10;83.80;;;;;;5077706;28;20427;-73
2022/06/06 04:57:01;;;;;;;5.57;4.60;;;19.10;82.60;;;;;;5077700;28;20458;-73
2022/06/06 04:59:31;;;;;;;5.37;4.80;;;19.40;82.50;;;;;;5077928;28;20459;-74
2022/06/06 05:01:59;;;;;;;4.03;3.70;;;19.70;79.80;;;;;;5077690;28;20479;-75
2022/06/06 05:04:27;;;;;;;5.67;3.87;;;20.20;74.90;;;;;;5077649;28;20977;-75
2022/06/06 05:07:23;;;;;;;4.97;4.47;;;20.70;71.00;;;;;;5078377;28;20450;-74
2022/06/06 05:10:02;;;;;;;4.37;3.97;;;21.30;66.50;;;;;;5078290;28;20480;-74
2022/06/06 05:12:47;;;;;;;4.50;4.10;;;21.90;62.30;;;;;;5089028;28;20532;-73
2022/06/06 05:15:30;;;;;;;5.97;4.60;;;22.20;58.90;;;;;;5086369;28;20445;-74
2022/06/06 05:18:16;;;;;;;5.50;4.60;;;21.90;59.70;;;;;;5075621;28;20450;-74
2022/06/06 05:20:59;;;;;;;4.00;3.70;;;21.70;60.20;;;;;;5075669;28;20505;-73
2022/06/06 05:23:43;;;;;;;6.83;4.37;;;21.60;60.00;;;;;;5075793;28;20410;-73
2022/06/06 05:26:32;;;;;;;5.33;4.83;;;21.50;60.00;;;;;;5076221;28;21066;-75
2022/06/06 05:29:28;;;;;;;5.53;4.23;;;21.60;60.00;;;;;;5076072;28;20506;-74
2022/06/06 05:32:18;;;;;;;4.90;4.50;;;21.70;58.60;;;;;;5076011;28;20783;-74
2022/06/06 05:34:50;;;;;;;5.03;4.20;;;21.50;59.40;;;;;;5076572;28;20510;-74
2022/06/06 05:37:29;;;;;;;5.00;4.47;;;21.40;59.90;;;;;;5076237;28;20937;-73
2022/06/06 05:40:14;;;;;;;5.43;4.77;;;21.30;59.80;;;;;;5078057;28;20404;-74
2022/06/06 05:43:02;;;;;;;5.43;4.47;;;21.20;59.70;;;;;;5078414;28;20514;-74
2022/06/06 05:45:38;;;;;;;5.63;4.43;;;21.10;60.50;;;;;;5077503;28;20509;-73
2022/06/06 05:48:20;;;;;;;5.80;4.20;;;21.20;60.20;;;;;;5077112;28;20427;-73
2022/06/06 05:50:59;;;;;;;5.00;4.60;;;21.20;60.50;;;;;;5076849;28;20458;-74
2022/06/06 05:53:40;;;;;;;4.57;4.17;;;21.20;59.70;;;;;;5075798;28;20936;-74
2022/06/06 05:56:25;;;;;;;5.97;4.40;;;21.10;60.70;;;;;;5078221;28;20948;-75
2022/06/06 05:59:06;;;;;;;6.00;4.70;;;20.80;61.70;;;;;;5075877;28;20423;-73
2022/06/06 06:01:49;;;;;;;6.13;4.50;;;20.60;63.60;;;;;;5075486;28;20509;-74
2022/06/06 06:04:39;;;;;;;6.07;5.10;;;20.60;64.20;;;;;;5075247;28;20448;-73
2022/06/06 06:07:19;;;;;;;9.03;4.90;;;20.60;64.30;;;;;;5075062;28;20457;-73
2022/06/06 06:10:03;;;;;;;5.27;4.83;;;20.60;64.60;;;;;;5075534;28;20475;-73
2022/06/06 06:12:48;;;;;;;7.50;4.80;;;20.60;63.90;;;;;;5075208;28;20464;-74
2022/06/06 06:15:26;;;;;;;5.50;4.83;;;20.50;64.40;;;;;;5074631;28;20464;-73
2022/06/06 06:17:54;;;;;;;4.93;4.37;;;20.50;64.20;;;;;;5075130;28;20459;-73
2022/06/06 06:20:25;;;;;;;6.67;5.20;;;20.40;65.30;;;;;;5075039;28;20444;-73
2022/06/06 06:22:56;;;;;;;5.10;4.70;;;20.30;66.00;;;;;;5075762;28;20410;-73
2022/06/06 06:25:25;;;;;;;8.43;4.60;;;20.30;66.90;;;;;;5077086;28;20467;-74
2022/06/06 06:27:57;;;;;;;5.40;4.90;;;20.40;66.10;;;;;;5090050;28;20430;-73
2022/06/06 06:30:28;;;;;;;5.43;4.50;;;20.60;65.80;;;;;;5091574;28;20536;-74
2022/06/06 06:33:18;;;;;;;5.53;5.10;;;20.90;64.20;;;;;;5086192;28;20574;-73
2022/06/06 06:35:53;;;;;;;5.17;4.77;;;21.20;61.70;;;;;;5087384;28;20484;-74
2022/06/06 06:38:34;;;;;;;5.70;4.80;;;21.60;60.00;;;;;;5097254;28;20434;-76
2022/06/06 06:41:06;;;;;;;5.50;4.43;;;21.80;59.60;;;;;;5098335;28;20406;-76
2022/06/06 06:43:51;;;;;;;6.00;4.07;;;22.50;57.00;;;;;;5098786;28;20439;-76
2022/06/06 06:46:27;;;;;;;9.13;4.60;;;23.30;53.50;;;;;;5098140;28;20437;-75
2022/06/06 06:49:01;;;;;;;4.83;4.43;;;23.50;52.10;;;;;;5094791;28;20481;-74
2022/06/06 06:51:38;;;;;;;4.60;4.20;;;23.90;50.30;;;;;;5093988;28;20511;-74
2022/06/06 06:54:19;;;;;;;4.63;4.20;;;24.50;48.10;;;;;;5097067;28;20482;-75
2022/06/06 06:57:02;;;;;;;4.50;4.10;;;24.80;46.60;;;;;;5095923;28;20472;-72
2022/06/06 06:59:38;;;;;;;4.33;4.03;;;24.70;46.00;;;;;;5095108;28;20455;-74
2022/06/06 07:11:16;;;;;;;4.70;4.30;;;23.20;49.80;;;;;;5080163;28;20565;-74
2022/06/06 07:13:57;;;;;;;5.23;4.73;;;22.30;50.40;;;;;;5080586;28;20470;-73
2022/06/06 07:16:26;;;;;;;5.27;4.83;;;22.00;52.20;;;;;;5085635;28;20477;-74
2022/06/06 07:19:00;;;;;;;4.20;3.80;;;21.80;51.50;;;;;;5088627;28;20453;-74
2022/06/06 07:21:28;;;;;;;7.07;4.23;;;21.60;52.10;;;;;;5086038;28;20459;-73
2022/06/06 07:24:00;;;;;;;4.40;4.07;;;21.30;53.00;;;;;;5088297;28;20456;-74
2022/06/06 07:26:27;;;;;;;5.43;4.80;;;21.30;53.10;;;;;;5086508;28;21208;-74
2022/06/06 07:28:54;;;;;;;4.23;3.93;;;21.00;52.30;;;;;;5087329;28;20448;-73
2022/06/06 07:31:28;;;;;;;4.47;4.17;;;20.90;52.60;;;;;;5090496;28;20472;-72
2022/06/06 07:34:29;;;;;;;6.20;3.90;;;20.90;52.10;;;;;;5090050;28;20432;-74
2022/06/06 07:37:06;;;;;;;4.80;4.30;;;20.70;52.30;;;;;;5090586;28;20478;-74
2022/06/06 07:39:48;;;;;;;4.50;4.10;;;20.70;53.10;;;;;;5091147;28;20455;-72
2022/06/06 07:42:41;;;;;;;5.60;3.90;;;20.80;52.80;;;;;;5089547;28;20958;-73
2022/06/06 07:45:22;;;;;;;3.70;3.37;;;20.70;53.20;;;;;;5090490;28;20447;-74
2022/06/06 07:48:14;;;;;;;4.40;4.10;;;20.60;53.50;;;;;;5091094;28;20424;-75
2022/06/06 07:50:49;;;;;;;7.23;3.90;;;20.40;53.90;;;;;;5085936;28;20476;-74
2022/06/06 07:53:25;;;;;;;4.70;4.17;;;20.40;54.20;;;;;;5086680;28;20519;-75
2022/06/06 07:56:00;;;;;;;4.57;4.20;;;20.50;54.30;;;;;;5087610;28;20481;-74
2022/06/06 07:58:37;;;;;;;7.47;4.30;;;20.50;54.30;;;;;;5090057;28;20530;-74
2022/06/06 08:01:16;;;;;;;4.50;4.10;;;20.60;54.10;;;;;;5092783;28;20538;-74
2022/06/06 08:03:49;;;;;;;4.63;4.23;;;20.80;53.70;;;;;;5092326;28;20443;-75
2022/06/06 08:06:36;;;;;;;4.50;4.20;;;21.00;53.50;;;;;;5090510;28;20475;-74
2022/06/06 08:09:44;;;;;;;3.80;3.50;;;21.10;52.30;;;;;;5088982;28;20422;-76
2022/06/06 08:12:27;;;;;;;4.70;3.80;;;21.20;52.00;;;;;;5087200;28;20531;-75
2022/06/06 08:15:07;;;;;;;5.93;4.60;;;21.30;50.10;;;;;;5086962;28;20513;-75
2022/06/06 08:17:46;;;;;;;4.13;3.80;;;21.30;50.10;;;;;;5081656;28;20456;-75
2022/06/06 08:20:21;;;;;;;4.27;3.53;;;21.40;50.20;;;;;;5078808;28;20450;-75
2022/06/06 08:22:48;;;;;;;4.50;4.10;;;21.60;50.40;;;;;;5077812;28;20451;-75
2022/06/06 08:25:17;;;;;;;3.90;3.60;;;21.70;48.90;;;;;;5078684;28;20563;-74
2022/06/06 08:27:50;;;;;;;4.33;3.37;;;22.00;47.30;;;;;;5080633;28;20512;-74
2022/06/06 08:30:18;;;;;;;4.90;3.20;;;22.00;47.20;;;;;;5078382;28;20497;-74
2022/06/06 08:32:45;;;;;;;4.23;3.13;;;22.00;46.80;;;;;;5083102;28;20514;-74
2022/06/06 08:35:12;;;;;;;8.13;3.10;;;22.10;47.10;;;;;;5079617;28;20472;-76
2022/06/06 08:38:01;;;;;;;4.60;3.53;;;22.10;45.80;;;;;;5084630;28;20434;-75
2022/06/06 08:41:15;;;;;;;3.67;3.10;;;22.20;45.80;;;;;;5076635;28;20906;-75
2022/06/06 08:44:00;;;;;;;6.10;3.30;;;22.40;45.40;;;;;;5079648;28;20480;-75
2022/06/06 08:46:42;;;;;;;3.47;3.17;;;22.40;45.00;;;;;;5085624;28;20487;-77
2022/06/06 08:52:15;;;;;;;3.53;2.63;;;22.90;42.90;;;;;;5085061;28;20455;-75
2022/06/06 08:55:17;;;;;;;3.40;2.63;;;23.00;41.60;;;;;;5080896;28;20462;-75
2022/06/06 08:57:59;;;;;;;12.90;3.50;;;23.00;41.60;;;;;;5085805;28;20534;-75
2022/06/06 09:00:42;;;;;;;2.47;2.27;;;23.10;41.30;;;;;;5086975;28;20510;-76
2022/06/06 09:03:54;;;;;;;4.53;2.80;;;23.10;40.30;;;;;;5090144;28;20429;-74
2022/06/06 09:06:42;;;;;;;2.97;2.67;;;23.10;41.00;;;;;;5043686;28;20448;-74
2022/06/06 09:09:46;;;;;;;2.70;2.20;;;23.50;39.90;;;;;;5093844;28;20489;-74
2022/06/06 09:13:01;;;;;;;3.23;2.40;;;23.80;39.40;;;;;;5091326;28;20454;-75
2022/06/06 09:16:01;;;;;;;2.87;2.63;;;23.80;39.70;;;;;;5094558;28;20542;-75
2022/06/06 09:19:11;;;;;;;3.37;2.93;;;23.70;38.70;;;;;;5078965;28;20433;-74
2022/06/06 09:21:59;;;;;;;3.80;3.50;;;23.60;38.80;;;;;;5093305;28;20430;-75
2022/06/06 09:25:00;;;;;;;3.60;3.27;;;23.80;39.60;;;;;;5092702;28;20433;-75
2022/06/06 09:27:51;;;;;;;3.37;3.07;;;23.90;39.30;;;;;;5092411;28;20413;-75
2022/06/06 09:30:29;;;;;;;3.47;2.90;;;23.80;38.60;;;;;;5087479;28;20454;-76
2022/06/06 09:33:36;;;;;;;3.17;2.40;;;24.00;38.20;;;;;;5087751;28;20407;-75
2022/06/06 09:36:19;;;;;;;3.93;2.73;;;24.00;38.10;;;;;;5098335;28;20470;-77
2022/06/06 09:39:08;;;;;;;4.03;2.70;;;23.90;37.90;;;;;;5099714;28;20476;-76
2022/06/06 09:41:39;;;;;;;6.13;2.80;;;24.00;38.10;;;;;;5095381;28;20429;-75
2022/06/06 09:44:21;;;;;;;2.97;2.77;;;23.80;37.80;;;;;;5077728;28;20528;-75
2022/06/06 09:47:20;;;;;;;2.57;2.47;;;23.70;36.80;;;;;;5077962;28;20488;-75
2022/06/06 09:50:23;;;;;;;2.70;2.50;;;23.50;37.00;;;;;;5077172;28;20555;-76
2022/06/06 09:53:30;;;;;;;3.00;2.40;;;23.20;38.30;;;;;;5075957;28;20922;-75
2022/06/06 09:59:53;;;;;;;3.30;3.00;;;22.90;39.20;;;;;;5028800;28;20441;-76
2022/06/06 10:02:49;;;;;;;3.20;3.00;;;22.70;42.70;;;;;;5050381;28;21123;-76
2022/06/06 10:05:49;;;;;;;4.47;3.47;;;21.90;49.10;;;;;;5076488;28;20450;-75
2022/06/06 10:08:54;;;;;;;7.03;3.73;;;21.30;51.20;;;;;;5076451;28;20423;-75
2022/06/06 10:11:47;;;;;;;3.60;3.30;;;20.30;56.40;;;;;;5075882;28;20961;-74
2022/06/06 10:14:56;;;;;;;6.90;3.90;;;19.60;62.70;;;;;;5075993;28;20475;-73
2022/06/06 10:17:48;;;;;;;4.07;3.67;;;19.20;69.40;;;;;;5026833;28;20423;-74
2022/06/06 10:20:23;;;;;;;6.40;3.97;;;19.00;72.90;;;;;;5074589;28;20923;-74
2022/06/06 10:23:19;;;;;;;6.20;3.40;;;18.90;67.30;;;;;;5075172;28;20790;-76
2022/06/06 10:26:13;;;;;;;4.63;3.70;;;19.00;72.70;;;;;;5074272;28;20486;-76
2022/06/06 10:29:22;;;;;;;4.47;4.07;;;19.10;71.60;;;;;;5075677;28;20433;-77
2022/06/06 10:32:10;;;;;;;4.67;3.80;;;19.40;78.30;;;;;;5014910;28;21105;-75
2022/06/06 10:34:58;;;;;;;3.33;3.13;;;19.70;71.90;;;;;;5068978;28;20911;-76
2022/06/06 10:37:41;;;;;;;4.57;3.97;;;20.10;69.90;;;;;;5074388;28;20939;-75
2022/06/06 10:40:37;;;;;;;4.93;3.57;;;20.70;63.00;;;;;;5074322;28;20432;-75
2022/06/06 10:43:36;;;;;;;4.27;3.50;;;21.40;59.90;;;;;;5074771;28;20531;-76
2022/06/06 10:46:11;;;;;;;4.20;3.90;;;21.70;57.00;;;;;;5074091;28;20475;-75
2022/06/06 10:48:56;;;;;;;3.83;3.50;;;22.00;55.00;;;;;;5077081;28;20422;-75
2022/06/06 10:52:12;;;;;;;3.43;3.23;;;22.30;52.50;;;;;;5076566;28;20492;-75
2022/06/06 10:55:15;;;;;;;4.27;3.87;;;22.70;54.80;;;;;;5076324;28;20461;-77
2022/06/06 10:58:11;;;;;;;4.30;3.90;;;23.00;52.90;;;;;;5076057;28;20963;-75
2022/06/06 11:01:13;;;;;;;4.43;3.90;;;23.00;49.80;;;;;;5008602;28;20416;-75
2022/06/06 11:04:06;;;;;;;5.50;2.73;;;23.00;51.70;;;;;;5075770;28;20443;-77
2022/06/06 11:07:10;;;;;;;3.50;2.83;;;23.10;48.60;;;;;;5077750;28;20466;-75
2022/06/06 11:10:02;;;;;;;3.77;3.47;;;23.10;46.70;;;;;;5068059;28;20880;-75
2022/06/06 11:12:58;;;;;;;4.73;2.77;;;22.90;47.50;;;;;;5078068;28;20409;-76
2022/06/06 11:15:35;;;;;;;3.27;3.00;;;22.60;46.60;;;;;;5075676;28;20467;-76
2022/06/06 11:18:29;;;;;;;4.67;3.17;;;22.50;47.80;;;;;;5073783;28;20454;-75
2022/06/06 11:21:31;;;;;;;2.97;2.60;;;22.50;49.20;;;;;;5073863;28;20433;-75
2022/06/06 11:24:07;;;;;;;5.53;3.53;;;22.60;47.60;;;;;;5074704;28;20433;-73
2022/06/06 11:27:10;;;;;;;3.10;2.90;;;22.70;45.70;;;;;;5079202;28;20566;-76
2022/06/06 11:30:07;;;;;;;5.70;2.80;;;22.80;45.20;;;;;;5073641;28;20445;-76
2022/06/06 11:33:10;;;;;;;2.87;2.60;;;22.90;44.50;;;;;;5067152;28;20452;-76
2022/06/06 11:35:55;;;;;;;4.50;3.20;;;22.90;43.80;;;;;;5048725;28;20464;-76
2022/06/06 11:39:03;;;;;;;4.50;3.57;;;23.10;43.50;;;;;;5074214;28;20481;-75
2022/06/06 11:41:42;;;;;;;2.80;2.60;;;23.70;42.30;;;;;;5076388;28;20458;-76
2022/06/06 11:44:28;;;;;;;4.30;3.00;;;24.10;39.70;;;;;;5080425;28;20442;-76
2022/06/06 11:47:33;;;;;;;3.30;2.93;;;24.30;39.00;;;;;;5076212;28;20582;-77
2022/06/06 11:50:39;;;;;;;3.40;2.37;;;24.70;38.90;;;;;;5077676;28;20456;-77
2022/06/06 11:53:34;;;;;;;3.53;3.20;;;24.60;36.20;;;;;;5078414;28;20451;-76
2022/06/06 11:56:16;;;;;;;8.00;2.67;;;24.60;36.10;;;;;;5077189;28;20896;-75
2022/06/06 11:59:12;;;;;;;3.20;3.00;;;24.60;36.40;;;;;;5074516;28;20466;-75
2022/06/06 12:02:11;;;;;;;4.53;3.67;;;24.60;35.40;;;;;;5073441;28;20418;-74
2022/06/06 12:05:08;;;;;;;3.10;2.80;;;24.30;36.80;;;;;;5071460;28;20986;-76
2022/06/06 12:07:58;;;;;;;3.17;2.93;;;24.30;37.80;;;;;;5030431;28;20462;-75
2022/06/06 12:10:31;;;;;;;3.13;2.83;;;24.70;36.80;;;;;;5061847;28;20483;-75
2022/06/06 12:13:28;;;;;;;3.27;3.07;;;24.60;36.20;;;;;;5078908;28;20427;-75
2022/06/06 12:16:22;;;;;;;2.83;2.63;;;24.70;37.40;;;;;;5068228;28;20476;-79
2022/06/06 12:19:24;;;;;;;3.30;3.10;;;24.70;35.50;;;;;;5089287;28;20432;-75
2022/06/06 12:22:16;;;;;;;3.43;2.57;;;24.70;35.80;;;;;;5043628;28;20433;-76
2022/06/06 12:25:15;;;;;;;3.30;2.90;;;24.50;35.50;;;;;;5078710;28;20461;-76
2022/06/06 12:28:01;;;;;;;7.37;3.47;;;23.90;36.50;;;;;;5074615;28;20943;-77
2022/06/06 12:30:48;;;;;;;3.27;2.93;;;23.70;37.30;;;;;;5075160;28;20491;-77
2022/06/06 12:33:18;;;;;;;4.43;2.87;;;23.60;37.40;;;;;;5074190;28;20422;-74
2022/06/06 12:35:51;;;;;;;3.33;3.00;;;23.50;37.80;;;;;;5073895;28;20455;-77
2022/06/06 12:38:32;;;;;;;3.00;2.70;;;23.40;38.30;;;;;;5074089;28;20417;-74
2022/06/06 12:41:19;;;;;;;3.57;3.23;;;23.50;37.70;;;;;;5078166;28;20439;-74
2022/06/06 12:44:13;;;;;;;2.73;2.27;;;23.40;37.60;;;;;;5090782;28;20410;-73
2022/06/06 12:46:55;;;;;;;4.63;3.00;;;23.40;37.10;;;;;;5086634;28;20553;-75
2022/06/06 12:49:35;;;;;;;8.63;2.80;;;23.40;37.10;;;;;;5087911;28;20444;-76
2022/06/06 12:52:17;;;;;;;2.53;2.30;;;23.50;36.90;;;;;;5087429;28;20468;-74
2022/06/06 12:58:25;;;;;;;3.80;2.20;;;23.50;36.50;;;;;;5069237;28;20895;-74
2022/06/06 13:04:09;;;;;;;2.20;2.10;;;23.90;36.90;;;;;;5078530;28;20418;-74
2022/06/06 13:06:44;;;;;;;2.77;2.57;;;23.80;36.50;;;;;;5077821;28;20444;-74
2022/06/06 13:09:25;;;;;;;3.30;2.10;;;24.00;36.40;;;;;;5078340;28;20989;-76
2022/06/06 13:12:00;;;;;;;3.90;2.73;;;24.00;36.30;;;;;;5091919;28;20527;-76
2022/06/06 13:14:55;;;;;;;7.70;2.67;;;24.00;36.20;;;;;;5098557;28;20446;-76
2022/06/06 13:17:31;;;;;;;2.90;2.70;;;23.90;36.40;;;;;;5098992;28;20427;-76
2022/06/06 13:20:08;;;;;;;2.90;2.43;;;23.80;36.50;;;;;;5099211;28;20402;-75
2022/06/06 13:23:02;;;;;;;2.47;2.27;;;23.50;37.20;;;;;;5098250;28;20741;-76
2022/06/06 13:25:43;;;;;;;2.93;2.70;;;23.30;37.60;;;;;;5092243;28;20552;-77
2022/06/06 13:28:20;;;;;;;2.77;2.57;;;23.00;38.90;;;;;;5084199;28;20429;-75
2022/06/06 13:31:12;;;;;;;2.73;2.53;;;22.90;38.60;;;;;;5085417;28;20489;-77
2022/06/06 13:33:54;;;;;;;2.53;2.40;;;22.80;38.80;;;;;;5090016;28;20473;-75
2022/06/06 13:36:35;;;;;;;3.33;2.97;;;22.70;39.10;;;;;;5078836;28;20475;-76
2022/06/06 13:39:18;;;;;;;3.27;2.97;;;22.50;40.50;;;;;;5077252;28;20559;-76
2022/06/06 13:41:55;;;;;;;4.20;3.03;;;22.40;41.00;;;;;;5077175;28;20479;-74
2022/06/06 13:45:02;;;;;;;2.77;2.30;;;22.30;41.00;;;;;;5076786;28;20461;-75
2022/06/06 13:47:43;;;;;;;6.10;2.90;;;22.30;40.90;;;;;;5100026;22;20865;-78
2022/06/06 13:50:18;;;;;;;2.93;2.73;;;22.40;41.00;;;;;;5081927;28;20785;-77
2022/06/06 13:53:13;;;;;;;3.77;2.40;;;22.50;41.10;;;;;;5078966;28;20471;-78
2022/06/06 13:55:41;;;;;;;3.97;2.63;;;22.80;39.80;;;;;;5080600;28;20906;-78
2022/06/06 13:58:26;;;;;;;3.13;2.50;;;23.00;39.40;;;;;;5082689;28;20451;-78
2022/06/06 14:01:07;;;;;;;2.67;2.47;;;23.40;39.20;;;;;;5080940;28;20435;-78
2022/06/06 14:04:00;;;;;;;2.97;2.40;;;24.00;37.40;;;;;;5083572;28;20426;-78
2022/06/06 14:06:46;;;;;;;2.97;2.20;;;24.30;35.50;;;;;;5076849;28;20446;-79
2022/06/06 14:09:16;;;;;;;4.33;2.03;;;24.40;35.60;;;;;;5075119;28;20437;-78
2022/06/06 14:12:02;;;;;;;5.87;2.50;;;24.60;35.20;;;;;;5075387;28;20462;-78
2022/06/06 14:14:33;;;;;;;2.70;2.20;;;24.70;35.20;;;;;;5075272;28;20474;-78
2022/06/06 14:17:02;;;;;;;3.80;2.10;;;24.80;34.80;;;;;;5074736;28;20503;-78
2022/06/06 14:19:35;;;;;;;2.90;2.10;;;25.00;34.40;;;;;;5074949;28;20492;-77
2022/06/06 14:22:06;;;;;;;2.43;2.10;;;24.90;33.90;;;;;;5074381;28;20506;-77